createdAt,value
2022-09-21T00:01:33.719Z,1.42
2022-09-21T00:04:03.658Z,5.30
2022-09-21T00:06:33.636Z,1.80
2022-09-21T00:11:34.039Z,3.70
2022-09-21T00:16:39.234Z,6.53
2022-09-21T00:19:13.138Z,2.33
2022-09-21T00:21:41.076Z,3.38
2022-09-21T00:24:09.767Z,3.65
2022-09-21T00:26:37.609Z,4.13
2022-09-21T00:29:06.143Z,5.72
2022-09-21T00:31:34.241Z,4.57
2022-09-21T00:34:03.767Z,4.13
2022-09-21T00:36:31.910Z,2.78
2022-09-21T00:39:01.781Z,6.28
2022-09-21T00:41:32.286Z,3.53
2022-09-21T00:44:21.664Z,2.67
2022-09-21T00:46:52.975Z,5.22
2022-09-21T00:49:21.707Z,1.17
2022-09-21T00:51:53.303Z,1.45
2022-09-21T00:54:27.447Z,0.60
2022-09-21T00:57:01.792Z,6.60
2022-09-21T00:59:31.710Z,4.43
2022-09-21T01:02:02.716Z,1.20
2022-09-21T01:04:30.983Z,1.23
2022-09-21T01:06:59.936Z,5.13
2022-09-21T01:09:28.440Z,1.65
2022-09-21T01:12:01.812Z,1.58
2022-09-21T01:14:44.854Z,1.67
2022-09-21T01:17:50.814Z,6.10
2022-09-21T01:20:36.614Z,2.50
2022-09-21T01:23:15.539Z,2.08
2022-09-21T01:26:06.601Z,3.47
2022-09-21T01:28:50.319Z,2.67
2022-09-21T01:31:24.566Z,0.73
2022-09-21T01:34:01.846Z,5.47
2022-09-21T01:36:38.284Z,4.07
2022-09-21T01:39:14.596Z,1.58
2022-09-21T01:41:45.225Z,5.10
2022-09-21T01:44:21.407Z,3.80
2022-09-21T01:46:49.506Z,2.22
2022-09-21T01:49:22.299Z,4.75
2022-09-21T01:51:56.952Z,2.30
2022-09-21T01:54:38.023Z,4.20
2022-09-21T01:57:42.302Z,1.30
2022-09-21T02:00:11.086Z,3.35
2022-09-21T02:02:51.087Z,2.38
2022-09-21T02:05:20.687Z,1.98
2022-09-21T02:07:48.859Z,4.38
2022-09-21T02:10:31.862Z,3.45
2022-09-21T02:13:03.047Z,4.22
2022-09-21T02:16:12.827Z,0.82
2022-09-21T02:18:57.848Z,4.60
2022-09-21T02:21:53.629Z,5.45
2022-09-21T02:24:28.243Z,4.13
2022-09-21T02:27:04.128Z,1.98
2022-09-21T02:29:58.259Z,5.80
2022-09-21T02:32:28.619Z,0.95
2022-09-21T02:35:20.681Z,6.47
2022-09-21T02:38:02.037Z,4.28
2022-09-21T02:40:36.034Z,1.83
2022-09-21T02:43:10.227Z,7.90
2022-09-21T02:45:48.611Z,1.92
2022-09-21T02:48:24.796Z,8.15
2022-09-21T02:53:36.628Z,4.82
2022-09-21T02:58:47.749Z,3.22
2022-09-21T03:01:16.702Z,6.63
2022-09-21T03:03:44.970Z,2.22
2022-09-21T03:06:13.287Z,2.03
2022-09-21T03:08:41.321Z,3.53
2022-09-21T03:11:10.982Z,3.22
2022-09-21T03:13:42.214Z,6.30
2022-09-21T03:16:10.093Z,4.97
2022-09-21T03:18:39.462Z,1.35
2022-09-21T03:21:07.642Z,4.22
2022-09-21T03:23:37.976Z,1.70
2022-09-21T03:26:05.890Z,4.72
2022-09-21T03:28:33.970Z,2.00
2022-09-21T03:31:01.971Z,0.40
2022-09-21T03:33:29.812Z,3.55
2022-09-21T03:35:57.727Z,1.33
2022-09-21T03:38:26.727Z,2.97
2022-09-21T03:40:58.468Z,3.22
2022-09-21T03:43:26.324Z,2.25
2022-09-21T03:45:54.251Z,3.55
2022-09-21T03:48:22.355Z,4.05
2022-09-21T03:50:50.338Z,2.47
2022-09-21T03:53:18.712Z,4.53
2022-09-21T03:55:46.728Z,2.05
2022-09-21T03:58:14.768Z,3.10
2022-09-21T04:00:43.068Z,3.22
2022-09-21T04:03:10.908Z,3.53
2022-09-21T04:05:40.040Z,3.80
2022-09-21T04:08:10.126Z,1.23
2022-09-21T04:10:38.016Z,1.23
2022-09-21T04:13:06.619Z,1.83
2022-09-21T04:15:34.215Z,5.43
2022-09-21T04:18:03.050Z,4.40
2022-09-21T04:20:30.878Z,2.33
2022-09-21T04:23:00.678Z,6.63
2022-09-21T04:25:28.894Z,6.15
2022-09-21T04:27:58.205Z,4.85
2022-09-21T04:30:26.102Z,4.50
2022-09-21T04:32:54.071Z,2.60
2022-09-21T04:35:22.173Z,6.18
2022-09-21T04:37:49.928Z,0.98
2022-09-21T04:40:17.890Z,3.17
2022-09-21T04:42:48.665Z,9.40
2022-09-21T04:45:17.753Z,5.10
2022-09-21T04:47:45.906Z,5.57
2022-09-21T04:50:14.873Z,8.25
2022-09-21T04:52:43.173Z,6.68
2022-09-21T04:55:11.778Z,8.05
2022-09-21T04:57:39.970Z,6.57
2022-09-21T05:00:08.598Z,9.40
2022-09-21T05:02:36.289Z,10.55
2022-09-21T05:05:04.209Z,3.78
2022-09-21T05:07:32.182Z,4.47
2022-09-21T05:10:03.597Z,3.28
2022-09-21T05:12:37.525Z,2.67
2022-09-21T05:15:08.068Z,3.45
2022-09-21T05:17:35.989Z,5.00
2022-09-21T05:20:05.712Z,3.92
2022-09-21T05:22:34.092Z,2.75
2022-09-21T05:25:02.310Z,9.15
2022-09-21T05:27:30.136Z,5.38
2022-09-21T05:29:58.275Z,5.43
2022-09-21T05:32:54.637Z,2.92
2022-09-21T05:35:45.355Z,3.92
2022-09-21T05:38:18.738Z,3.53
2022-09-21T05:40:56.344Z,4.82
2022-09-21T05:43:24.575Z,6.43
2022-09-21T05:46:11.403Z,5.90
2022-09-21T05:48:48.668Z,8.15
2022-09-21T05:51:22.756Z,12.50
2022-09-21T05:54:13.473Z,5.82
2022-09-21T05:56:55.900Z,6.63
2022-09-21T06:02:26.949Z,10.15
2022-09-21T06:04:58.253Z,10.82
2022-09-21T06:07:25.957Z,6.75
2022-09-21T06:09:54.027Z,6.95
2022-09-21T06:12:34.626Z,6.78
2022-09-21T06:15:02.563Z,14.98
2022-09-21T06:17:30.316Z,7.22
2022-09-21T06:19:57.986Z,11.52
2022-09-21T06:22:25.756Z,6.30
2022-09-21T06:24:55.984Z,4.97
2022-09-21T06:27:23.583Z,5.63
2022-09-21T06:29:53.248Z,9.07
2022-09-21T06:32:24.802Z,5.80
2022-09-21T06:34:52.405Z,8.13
2022-09-21T06:37:20.319Z,7.35
2022-09-21T06:39:48.472Z,7.45
2022-09-21T06:42:16.340Z,8.02
2022-09-21T06:44:46.675Z,5.57
2022-09-21T06:47:14.461Z,9.63
2022-09-21T06:49:42.801Z,9.98
2022-09-21T06:52:17.254Z,7.57
2022-09-21T06:54:45.111Z,15.23
2022-09-21T06:57:13.305Z,11.13
2022-09-21T06:59:41.033Z,6.75
2022-09-21T07:02:10.499Z,10.18
2022-09-21T07:04:38.707Z,6.82
2022-09-21T07:07:06.590Z,9.27
2022-09-21T07:12:22.162Z,5.90
2022-09-21T07:14:53.344Z,9.05
2022-09-21T07:17:21.635Z,6.65
2022-09-21T07:19:50.605Z,5.68
2022-09-21T07:22:18.281Z,5.80
2022-09-21T07:24:47.021Z,12.85
2022-09-21T07:27:18.719Z,4.70
2022-09-21T07:29:46.834Z,5.47
2022-09-21T07:32:14.762Z,8.02
2022-09-21T07:34:42.911Z,9.18
2022-09-21T07:37:10.826Z,9.43
2022-09-21T07:39:39.117Z,11.45
2022-09-21T07:42:07.533Z,7.30
2022-09-21T07:44:35.464Z,8.60
2022-09-21T07:47:04.667Z,8.95
2022-09-21T07:49:32.461Z,7.25
2022-09-21T07:52:03.892Z,7.45
2022-09-21T07:54:33.897Z,4.30
2022-09-21T07:57:20.263Z,5.07
2022-09-21T07:59:48.299Z,9.13
2022-09-21T08:02:16.012Z,6.25
2022-09-21T08:04:43.677Z,5.95
2022-09-21T08:07:12.578Z,7.22
2022-09-21T08:09:41.055Z,9.80
2022-09-21T08:12:09.336Z,9.38
2022-09-21T08:14:38.559Z,6.80
2022-09-21T08:17:06.491Z,8.63
2022-09-21T08:19:34.700Z,11.15
2022-09-21T08:22:02.770Z,7.40
2022-09-21T08:24:32.011Z,9.52
2022-09-21T08:27:00.453Z,8.95
2022-09-21T08:29:28.372Z,13.20
2022-09-21T08:31:56.756Z,14.13
2022-09-21T08:34:27.214Z,7.82
2022-09-21T08:36:55.900Z,9.48
2022-09-21T08:39:24.042Z,7.93
2022-09-21T08:42:13.470Z,12.95
2022-09-21T08:44:53.111Z,8.68
2022-09-21T08:47:42.076Z,7.03
2022-09-21T08:50:33.977Z,6.15
2022-09-21T08:53:14.906Z,5.55
2022-09-21T08:55:44.198Z,12.48
2022-09-21T08:58:31.547Z,7.03
2022-09-21T09:01:09.126Z,6.65
2022-09-21T09:03:53.073Z,11.27
2022-09-21T09:06:33.061Z,5.95
2022-09-21T09:09:00.886Z,7.70
2022-09-21T09:11:49.799Z,5.53
2022-09-21T09:14:42.736Z,9.73
2022-09-21T09:17:30.136Z,6.18
2022-09-21T09:19:59.642Z,5.80
2022-09-21T09:22:35.027Z,7.18
2022-09-21T09:25:06.732Z,6.18
2022-09-21T09:27:43.611Z,8.55
2022-09-21T09:30:20.032Z,7.70
2022-09-21T09:32:59.812Z,6.97
2022-09-21T09:35:46.648Z,6.32
2022-09-21T09:38:31.937Z,3.15
2022-09-21T09:41:09.406Z,9.20
2022-09-21T09:44:18.246Z,7.88
2022-09-21T09:46:55.569Z,5.63
2022-09-21T09:50:00.846Z,8.15
2022-09-21T09:52:28.762Z,7.65
2022-09-21T09:54:57.196Z,5.00
2022-09-21T09:57:30.566Z,4.40
2022-09-21T10:00:03.992Z,3.60
2022-09-21T10:02:33.076Z,2.28
2022-09-21T10:05:06.523Z,4.13
2022-09-21T10:07:46.199Z,3.88
2022-09-21T10:10:34.426Z,3.55
2022-09-21T10:18:24.516Z,3.22
2022-09-21T10:21:29.482Z,4.00
2022-09-21T10:24:04.423Z,3.17
2022-09-21T10:26:45.427Z,5.05
2022-09-21T10:29:22.620Z,4.47
2022-09-21T10:32:16.367Z,7.10
2022-09-21T10:35:04.079Z,4.28
2022-09-21T10:37:54.706Z,5.55
2022-09-21T10:40:22.970Z,8.38
2022-09-21T10:42:54.615Z,5.25
2022-09-21T10:45:26.201Z,3.72
2022-09-21T10:48:05.080Z,7.90
2022-09-21T10:50:42.018Z,9.52
2022-09-21T10:53:34.309Z,6.15
2022-09-21T10:56:16.680Z,4.75
2022-09-21T10:59:12.902Z,8.75
2022-09-21T11:01:47.690Z,7.05
2022-09-21T11:04:24.529Z,9.30
2022-09-21T11:06:56.097Z,6.47
2022-09-21T11:09:32.939Z,6.75
2022-09-21T11:12:05.127Z,8.07
2022-09-21T11:14:46.824Z,6.47
2022-09-21T11:17:32.586Z,3.83
2022-09-21T11:20:27.318Z,4.55
2022-09-21T11:23:04.450Z,3.80
2022-09-21T11:25:49.886Z,6.72
2022-09-21T11:28:24.338Z,6.22
2022-09-21T11:31:29.681Z,4.97
2022-09-21T11:34:16.405Z,7.55
2022-09-21T11:37:11.112Z,6.28
2022-09-21T11:39:51.911Z,5.75
2022-09-21T11:42:35.423Z,5.60
2022-09-21T11:45:11.274Z,7.90
2022-09-21T11:48:10.820Z,7.63
2022-09-21T11:51:04.565Z,6.88
2022-09-21T11:53:59.966Z,5.85
2022-09-21T11:56:35.571Z,8.18
2022-09-21T11:59:25.711Z,7.82
2022-09-21T12:02:05.676Z,4.97
2022-09-21T12:04:52.044Z,11.52
2022-09-21T12:07:44.109Z,12.57
2022-09-21T12:10:17.069Z,5.40
2022-09-21T12:13:00.720Z,6.07
2022-09-21T12:15:41.335Z,7.20
2022-09-21T12:18:27.530Z,9.10
2022-09-21T12:21:03.778Z,7.63
2022-09-21T12:23:40.922Z,7.53
2022-09-21T12:26:15.451Z,9.07
2022-09-21T12:28:53.688Z,7.88
2022-09-21T12:31:43.124Z,9.43
2022-09-21T12:34:49.574Z,7.53
2022-09-21T12:37:25.272Z,5.25
2022-09-21T12:39:56.982Z,6.30
2022-09-21T12:42:35.909Z,7.38
2022-09-21T12:45:07.085Z,3.13
2022-09-21T12:48:12.500Z,6.75
2022-09-21T12:50:45.276Z,6.82
2022-09-21T12:53:21.952Z,2.75
2022-09-21T12:55:56.068Z,4.22
2022-09-21T12:58:41.694Z,6.72
2022-09-21T13:01:28.647Z,2.83
2022-09-21T13:04:24.884Z,2.53
2022-09-21T13:07:23.772Z,6.10
2022-09-21T13:09:54.661Z,3.60
2022-09-21T13:12:34.967Z,5.82
2022-09-21T13:15:14.318Z,5.13
2022-09-21T13:17:42.227Z,4.72
2022-09-21T13:20:21.241Z,3.92
2022-09-21T13:22:49.332Z,6.97
2022-09-21T13:25:28.237Z,2.83
2022-09-21T13:28:42.201Z,4.10
2022-09-21T13:31:39.456Z,5.57
2022-09-21T13:34:09.974Z,4.93
2022-09-21T13:36:37.689Z,2.83
2022-09-21T13:39:19.625Z,4.25
2022-09-21T13:42:02.872Z,3.17
2022-09-21T13:44:46.507Z,4.50
2022-09-21T13:47:14.889Z,4.30
2022-09-21T13:49:54.087Z,3.33
2022-09-21T13:55:05.625Z,4.82
2022-09-21T13:57:48.519Z,4.68
2022-09-21T14:00:23.929Z,2.53
2022-09-21T14:03:01.149Z,3.58
2022-09-21T14:05:56.678Z,2.80
2022-09-21T14:08:29.971Z,2.88
2022-09-21T14:11:18.305Z,2.28
2022-09-21T14:16:52.406Z,3.55
2022-09-21T14:19:23.541Z,4.07
2022-09-21T14:22:08.482Z,2.45
2022-09-21T14:24:38.653Z,7.22
2022-09-21T14:27:14.575Z,6.50
2022-09-21T14:30:00.033Z,5.55
2022-09-21T14:32:42.614Z,5.53
2022-09-21T14:35:24.862Z,2.90
2022-09-21T14:40:39.142Z,1.90
2022-09-21T14:43:15.716Z,3.08
2022-09-21T14:46:00.406Z,2.58
2022-09-21T14:48:34.939Z,2.67
2022-09-21T14:51:40.388Z,1.80
2022-09-21T14:54:27.053Z,2.28
2022-09-21T14:57:13.355Z,2.25
2022-09-21T14:59:55.069Z,5.53
2022-09-21T15:02:35.855Z,3.60
2022-09-21T15:05:10.247Z,2.58
2022-09-21T15:08:07.610Z,3.70
2022-09-21T15:10:58.988Z,3.90
2022-09-21T15:14:20.734Z,2.63
2022-09-21T15:16:51.799Z,2.97
2022-09-21T15:19:19.561Z,4.00
2022-09-21T15:22:10.817Z,5.38
2022-09-21T15:24:48.654Z,6.97
2022-09-21T15:27:18.446Z,2.85
2022-09-21T15:29:51.627Z,2.95
2022-09-21T15:32:36.800Z,1.83
2022-09-21T15:35:20.493Z,3.63
2022-09-21T15:37:49.153Z,3.85
2022-09-21T15:40:22.925Z,2.85
2022-09-21T15:43:12.109Z,3.63
2022-09-21T15:45:58.177Z,3.95
2022-09-21T15:48:34.296Z,2.70
2022-09-21T15:53:45.039Z,2.60
2022-09-21T15:56:26.647Z,1.85
2022-09-21T15:59:15.104Z,2.38
2022-09-21T16:04:28.971Z,2.60
2022-09-21T16:07:33.480Z,2.67
2022-09-21T16:10:02.053Z,2.78
2022-09-21T16:12:45.331Z,3.50
2022-09-21T16:15:29.335Z,1.77
2022-09-21T16:18:02.028Z,2.95
2022-09-21T16:20:47.605Z,2.65
2022-09-21T16:23:17.072Z,2.25
2022-09-21T16:25:44.717Z,3.85
2022-09-21T16:28:36.915Z,2.35
2022-09-21T16:31:24.271Z,1.60
2022-09-21T16:33:51.971Z,1.52
2022-09-21T16:36:34.064Z,2.53
2022-09-21T16:39:06.280Z,0.80
2022-09-21T16:41:38.950Z,1.40
2022-09-21T16:44:09.174Z,1.95
2022-09-21T16:46:37.487Z,3.92
2022-09-21T16:49:04.804Z,1.30
2022-09-21T16:51:32.423Z,4.22
2022-09-21T16:54:00.216Z,2.72
2022-09-21T16:56:27.923Z,1.77
2022-09-21T16:58:55.533Z,1.73
2022-09-21T17:01:22.732Z,1.63
2022-09-21T17:03:50.380Z,1.30
2022-09-21T17:06:19.387Z,1.45
2022-09-21T17:08:48.416Z,2.35
2022-09-21T17:11:19.976Z,2.22
2022-09-21T17:13:51.362Z,3.63
2022-09-21T17:16:20.198Z,2.97
2022-09-21T17:18:51.968Z,2.40
2022-09-21T17:21:19.394Z,1.90
2022-09-21T17:23:46.870Z,1.60
2022-09-21T17:26:21.297Z,4.78
2022-09-21T17:28:49.016Z,1.17
2022-09-21T17:31:17.309Z,1.50
2022-09-21T17:33:45.721Z,1.27
2022-09-21T17:36:16.753Z,1.33
2022-09-21T17:38:44.990Z,1.38
2022-09-21T17:41:36.592Z,0.90
2022-09-21T17:44:08.398Z,1.05
2022-09-21T17:46:41.807Z,1.25
2022-09-21T17:49:11.500Z,1.75
2022-09-21T17:51:57.585Z,1.02
2022-09-21T17:54:25.240Z,0.88
2022-09-21T17:57:15.447Z,0.80
2022-09-21T17:59:49.046Z,1.40
2022-09-21T18:02:24.504Z,1.23
2022-09-21T18:04:55.227Z,1.35
2022-09-21T18:07:25.137Z,1.30
2022-09-21T18:12:36.978Z,0.75
2022-09-21T18:15:15.156Z,1.20
2022-09-21T18:18:09.797Z,1.92
2022-09-21T18:20:39.638Z,1.48
2022-09-21T18:23:32.934Z,3.78
2022-09-21T18:26:01.006Z,4.93
2022-09-21T18:28:41.672Z,0.60
2022-09-21T18:31:27.930Z,1.33
2022-09-21T18:33:56.948Z,0.80
2022-09-21T18:36:33.174Z,0.90
2022-09-21T18:39:14.047Z,0.73
2022-09-21T18:42:06.405Z,1.02
2022-09-21T18:44:38.349Z,1.00
2022-09-21T18:47:13.201Z,0.70
2022-09-21T18:49:58.833Z,1.15
2022-09-21T18:53:05.068Z,0.77
2022-09-21T18:55:33.512Z,1.23
2022-09-21T18:58:04.023Z,2.00
2022-09-21T19:00:32.494Z,0.90
2022-09-21T19:03:16.503Z,1.35
2022-09-21T19:06:03.789Z,1.38
2022-09-21T19:08:34.431Z,0.70
2022-09-21T19:11:27.797Z,1.02
2022-09-21T19:14:38.993Z,1.55
2022-09-21T19:17:21.547Z,0.98
2022-09-21T19:20:07.328Z,1.20
2022-09-21T19:22:54.970Z,1.10
2022-09-21T19:25:40.801Z,0.75
2022-09-21T19:28:36.503Z,0.70
2022-09-21T19:31:10.611Z,0.82
2022-09-21T19:33:50.110Z,1.02
2022-09-21T19:36:18.486Z,1.20
2022-09-21T19:38:46.049Z,0.50
2022-09-21T19:41:32.229Z,1.00
2022-09-21T19:44:10.104Z,1.10
2022-09-21T19:47:02.396Z,1.27
2022-09-21T19:49:42.996Z,1.27
2022-09-21T19:52:15.353Z,0.90
2022-09-21T19:55:01.559Z,0.77
2022-09-21T19:57:47.845Z,1.38
2022-09-21T20:00:17.420Z,0.75
2022-09-21T20:03:11.123Z,0.52
2022-09-21T20:06:06.432Z,0.95
2022-09-21T20:09:11.940Z,0.50
2022-09-21T20:11:47.619Z,1.00
2022-09-21T20:14:35.868Z,0.80
2022-09-21T20:17:10.598Z,0.77
2022-09-21T20:19:50.194Z,0.80
2022-09-21T20:22:23.222Z,0.40
2022-09-21T20:25:07.551Z,0.80
2022-09-21T20:27:35.097Z,0.77
2022-09-21T20:30:04.188Z,0.50
2022-09-21T20:32:32.615Z,0.85
2022-09-21T20:35:00.215Z,0.60
2022-09-21T20:37:30.237Z,0.43
2022-09-21T20:39:57.681Z,0.93
2022-09-21T20:42:26.804Z,0.82
2022-09-21T20:44:54.759Z,0.60
2022-09-21T20:47:23.766Z,0.77
2022-09-21T20:49:51.922Z,0.50
2022-09-21T20:52:20.919Z,0.50
2022-09-21T20:54:49.697Z,0.63
2022-09-21T20:57:18.482Z,0.68
2022-09-21T20:59:46.298Z,0.70
2022-09-21T21:02:15.244Z,0.50
2022-09-21T21:04:45.445Z,0.60
2022-09-21T21:07:12.922Z,0.57
2022-09-21T21:09:40.349Z,0.88
2022-09-21T21:12:10.328Z,0.75
2022-09-21T21:17:05.663Z,0.70
2022-09-21T21:19:33.169Z,0.40
2022-09-21T21:22:03.095Z,0.30
2022-09-21T21:24:45.069Z,0.50
2022-09-21T21:27:16.659Z,0.50
2022-09-21T21:29:50.160Z,0.80
2022-09-21T21:32:19.053Z,0.43
2022-09-21T21:34:49.785Z,0.50
2022-09-21T21:37:17.454Z,0.57
2022-09-21T21:39:45.093Z,0.75
2022-09-21T21:42:12.848Z,0.60
2022-09-21T21:44:40.477Z,0.38
2022-09-21T21:47:35.175Z,0.50
2022-09-21T21:49:57.125Z,0.80
2022-09-21T21:52:24.794Z,0.60
2022-09-21T21:54:52.191Z,1.23
2022-09-21T21:57:19.898Z,0.52
2022-09-21T21:59:47.430Z,0.60
2022-09-21T22:02:15.585Z,0.32
2022-09-21T22:04:44.682Z,0.35
2022-09-21T22:07:13.270Z,0.43
2022-09-21T22:09:40.807Z,0.68
2022-09-21T22:12:09.398Z,0.80
2022-09-21T22:14:36.899Z,0.57
2022-09-21T22:17:07.114Z,0.50
2022-09-21T22:19:34.394Z,0.57
2022-09-21T22:22:02.035Z,0.65
2022-09-21T22:24:29.805Z,0.50
2022-09-21T22:26:57.528Z,0.60
2022-09-21T22:29:25.227Z,0.50
2022-09-21T22:31:55.332Z,0.55
2022-09-21T22:34:23.141Z,0.60
2022-09-21T22:36:50.831Z,0.40
2022-09-21T22:39:21.489Z,0.40
2022-09-21T22:41:49.073Z,0.55
2022-09-21T22:44:16.545Z,0.50
2022-09-21T22:46:44.782Z,0.90
2022-09-21T22:49:13.629Z,0.60
2022-09-21T22:51:41.249Z,0.98
2022-09-21T22:54:08.963Z,0.52
2022-09-21T22:56:36.633Z,0.98
2022-09-21T22:59:05.132Z,0.55
2022-09-21T23:01:38.658Z,0.90
2022-09-21T23:04:09.263Z,0.40
2022-09-21T23:06:38.911Z,1.13
2022-09-21T23:09:12.427Z,0.50
2022-09-21T23:11:43.141Z,1.33
2022-09-21T23:14:13.026Z,0.60
2022-09-21T23:16:40.730Z,1.05
2022-09-21T23:19:15.702Z,0.30
2022-09-21T23:21:45.612Z,0.90
2022-09-21T23:24:13.668Z,0.50
2022-09-21T23:26:41.320Z,0.60
2022-09-21T23:29:14.972Z,0.45
2022-09-21T23:31:45.567Z,1.27
2022-09-21T23:34:13.962Z,0.30
2022-09-21T23:36:42.246Z,1.05
2022-09-21T23:39:12.146Z,0.43
2022-09-21T23:41:39.834Z,1.38
2022-09-21T23:44:07.486Z,0.30
2022-09-21T23:46:38.637Z,1.10
2022-09-21T23:49:06.596Z,0.40
2022-09-21T23:51:36.439Z,1.10
2022-09-21T23:54:04.580Z,0.40
2022-09-21T23:56:32.264Z,0.85
2022-09-21T23:58:59.932Z,0.60
